Portada
METAR-TAF:

METAR-TAF

Aeroports :

Hohhot, Xina

latitud: 40-49N, longitud: 111-41E, altitud: 1065 m

Observació

L'informe es va fer fa 1 hora i 2 minuts, a les 09:00 UTC
Vent 6 kt del Nord-Oest, variant entre Oest/Nord-Oest i Nord/Nord-Est
Temperatura 34°C
Humitat 15%
Pressió 1001 hPa
Visibilitat 10 km o més
Núvols disperses a una alçada de 4000 ft

METAR: ZBHH 250900Z 32003MPS 290V020 9999 SCT040 34/04 Q1001 NOSIG

Hora: 18:02 (10:02 UTC)

Pronòstic

L'informe es va fer fa 7 hores i 1 minuts, a les 03:01 UTC
Pronòstic vàlid del 25 a les 06 UTC al 26 a les 06 UTC
Vent 8 kt del Oest/Sud-Oest
Visibilitat 10 km o més
Escasses núvols a una alçada de 4000 ft
Temporalment
l' 25 a les 06 UTC al 25 a les 10 UTC
Escasses núvols a una alçada de 4000 ft, Cumulonimbus.
Escasses núvols a una alçada de 4000 ft

TAF: ZBHH 250301Z 2506/2606 24004MPS 9999 FEW040 TX37/2507Z TN20/2522Z TEMPO 2506/2510 FEW040CB FEW040

Observacions i pronòstics meteorològics de més de 4000 aeroports (METAR i TAF).

Les estacions disponibles són els punts grocs i vermells al mapa.

Posi el ratolí al punt desitjat per veure el nom de l'estació.

Feu clic per veure les observacions i els pronòstics meteorològics.

Per canviar el mapa: feu clic els botons verds amb una creu de color negre per apropar; al botó verd amb un guió per allunyar la imatge; o en les fletxes verdes per a mapes adjacents.


METAR-TAF: